sensor_id;sensor_type;location;lat;lon;timestamp;pressure;altitude;pressure_sealevel;temperature;humidity
59289;BME280;45056;47.602;9.886;2023-02-19T00:01:52;93597.63;;;10.56;57.98
59289;BME280;45056;47.602;9.886;2023-02-19T00:04:21;93592.50;;;10.58;57.95
59289;BME280;45056;47.602;9.886;2023-02-19T00:06:49;93592.06;;;10.60;57.89
59289;BME280;45056;47.602;9.886;2023-02-19T00:09:19;93582.75;;;10.61;57.77
59289;BME280;45056;47.602;9.886;2023-02-19T00:11:48;93585.88;;;10.59;57.71
59289;BME280;45056;47.602;9.886;2023-02-19T00:14:18;93578.13;;;10.58;57.58
59289;BME280;45056;47.602;9.886;2023-02-19T00:16:48;93577.78;;;10.56;57.61
59289;BME280;45056;47.602;9.886;2023-02-19T00:19:18;93579.41;;;10.53;57.77
59289;BME280;45056;47.602;9.886;2023-02-19T00:21:50;93570.47;;;10.52;57.54
59289;BME280;45056;47.602;9.886;2023-02-19T00:24:19;93573.63;;;10.51;57.66
59289;BME280;45056;47.602;9.886;2023-02-19T00:26:49;93572.13;;;10.50;57.64
59289;BME280;45056;47.602;9.886;2023-02-19T00:29:20;93574.84;;;10.50;57.48
59289;BME280;45056;47.602;9.886;2023-02-19T00:31:48;93572.53;;;10.48;57.67
59289;BME280;45056;47.602;9.886;2023-02-19T00:34:16;93567.09;;;10.48;57.54
59289;BME280;45056;47.602;9.886;2023-02-19T00:36:44;93564.81;;;10.47;57.53
59289;BME280;45056;47.602;9.886;2023-02-19T00:39:14;93568.72;;;10.46;57.62
59289;BME280;45056;47.602;9.886;2023-02-19T00:41:43;93566.41;;;10.44;57.59
59289;BME280;45056;47.602;9.886;2023-02-19T00:44:14;93566.06;;;10.42;57.56
59289;BME280;45056;47.602;9.886;2023-02-19T00:46:45;93558.66;;;10.43;57.56
59289;BME280;45056;47.602;9.886;2023-02-19T00:49:16;93553.22;;;10.43;57.51
59289;BME280;45056;47.602;9.886;2023-02-19T00:51:48;93562.91;;;10.44;57.52
59289;BME280;45056;47.602;9.886;2023-02-19T00:54:19;93555.94;;;10.43;57.55
59289;BME280;45056;47.602;9.886;2023-02-19T00:56:48;93555.19;;;10.42;57.53
59289;BME280;45056;47.602;9.886;2023-02-19T00:59:19;93552.47;;;10.42;57.46
59289;BME280;45056;47.602;9.886;2023-02-19T01:01:47;93559.44;;;10.43;57.35
59289;BME280;45056;47.602;9.886;2023-02-19T01:04:15;93554.84;;;10.40;57.66
59289;BME280;45056;47.602;9.886;2023-02-19T01:06:43;93550.56;;;10.39;57.61
59289;BME280;45056;47.602;9.886;2023-02-19T01:09:11;93552.94;;;10.37;57.66
59289;BME280;45056;47.602;9.886;2023-02-19T01:11:39;93532.38;;;10.36;57.77
59289;BME280;45056;47.602;9.886;2023-02-19T01:14:08;93542.06;;;10.37;57.69
59289;BME280;45056;47.602;9.886;2023-02-19T01:16:38;93538.16;;;10.38;57.74
59289;BME280;45056;47.602;9.886;2023-02-19T01:19:06;93547.50;;;10.37;57.68
59289;BME280;45056;47.602;9.886;2023-02-19T01:21:34;93540.09;;;10.37;57.81
59289;BME280;45056;47.602;9.886;2023-02-19T01:24:02;93545.53;;;10.37;57.85
59289;BME280;45056;47.602;9.886;2023-02-19T01:26:32;93535.84;;;10.36;57.84
59289;BME280;45056;47.602;9.886;2023-02-19T01:29:01;93544.47;;;10.35;57.91
59289;BME280;45056;47.602;9.886;2023-02-19T01:31:29;93527.34;;;10.34;58.04
59289;BME280;45056;47.602;9.886;2023-02-19T01:34:01;93532.03;;;10.34;57.94
59289;BME280;45056;47.602;9.886;2023-02-19T01:36:32;93530.50;;;10.33;58.15
59289;BME280;45056;47.602;9.886;2023-02-19T01:39:04;93528.53;;;10.33;58.18
59289;BME280;45056;47.602;9.886;2023-02-19T01:41:36;93528.53;;;10.33;58.22
59289;BME280;45056;47.602;9.886;2023-02-19T01:47:31;93528.22;;;10.31;58.26
59289;BME280;45056;47.602;9.886;2023-02-19T01:50:01;93535.63;;;10.31;58.23
59289;BME280;45056;47.602;9.886;2023-02-19T01:52:32;93528.66;;;10.30;58.29
59289;BME280;45056;47.602;9.886;2023-02-19T01:55:06;93530.66;;;10.25;58.52
59289;BME280;45056;47.602;9.886;2023-02-19T01:57:43;93528.03;;;10.22;58.51
59289;BME280;45056;47.602;9.886;2023-02-19T02:00:17;93524.22;;;10.19;58.63
59289;BME280;45056;47.602;9.886;2023-02-19T02:02:50;93521.16;;;10.17;58.68
59289;BME280;45056;47.602;9.886;2023-02-19T02:05:31;93523.94;;;10.14;58.80
59289;BME280;45056;47.602;9.886;2023-02-19T02:08:09;93514.34;;;10.09;58.89
59289;BME280;45056;47.602;9.886;2023-02-19T02:10:57;93514.03;;;10.07;58.88
59289;BME280;45056;47.602;9.886;2023-02-19T02:13:26;93508.25;;;10.05;58.95
59289;BME280;45056;47.602;9.886;2023-02-19T02:16:06;93502.03;;;10.04;58.82
59289;BME280;45056;47.602;9.886;2023-02-19T02:18:58;93494.31;;;10.03;58.79
59289;BME280;45056;47.602;9.886;2023-02-19T02:21:58;93495.16;;;10.00;58.85
59289;BME280;45056;47.602;9.886;2023-02-19T02:27:53;93487.94;;;9.93;58.90
59289;BME280;45056;47.602;9.886;2023-02-19T02:30:37;93492.69;;;9.89;58.92
59289;BME280;45056;47.602;9.886;2023-02-19T02:33:18;93490.38;;;9.87;58.79
59289;BME280;45056;47.602;9.886;2023-02-19T02:35:58;93487.31;;;9.85;59.10
59289;BME280;45056;47.602;9.886;2023-02-19T02:38:35;93479.22;;;9.81;59.19
59289;BME280;45056;47.602;9.886;2023-02-19T02:41:05;93475.84;;;9.77;59.22
59289;BME280;45056;47.602;9.886;2023-02-19T02:43:34;93462.00;;;9.72;59.31
59289;BME280;45056;47.602;9.886;2023-02-19T02:46:04;93466.75;;;9.67;59.28
59289;BME280;45056;47.602;9.886;2023-02-19T02:48:36;93466.84;;;9.64;59.37
59289;BME280;45056;47.602;9.886;2023-02-19T02:51:14;93475.38;;;9.62;59.36
59289;BME280;45056;47.602;9.886;2023-02-19T02:53:51;93464.63;;;9.59;59.41
59289;BME280;45056;47.602;9.886;2023-02-19T02:56:42;93456.03;;;9.60;59.47
59289;BME280;45056;47.602;9.886;2023-02-19T02:59:14;93454.50;;;9.59;59.60
59289;BME280;45056;47.602;9.886;2023-02-19T03:01:51;93456.88;;;9.57;59.60
59289;BME280;45056;47.602;9.886;2023-02-19T03:04:43;93459.59;;;9.57;59.52
59289;BME280;45056;47.602;9.886;2023-02-19T03:07:40;93451.03;;;9.59;59.38
59289;BME280;45056;47.602;9.886;2023-02-19T03:10:17;93457.66;;;9.58;59.41
59289;BME280;45056;47.602;9.886;2023-02-19T03:12:54;93449.06;;;9.59;59.54
59289;BME280;45056;47.602;9.886;2023-02-19T03:15:54;93464.19;;;9.60;59.41
59289;BME280;45056;47.602;9.886;2023-02-19T03:18:48;93462.25;;;9.61;59.42
59289;BME280;45056;47.602;9.886;2023-02-19T03:21:41;93449.06;;;9.59;59.43
59289;BME280;45056;47.602;9.886;2023-02-19T03:24:15;93447.53;;;9.58;59.58
59289;BME280;45056;47.602;9.886;2023-02-19T03:27:06;93447.53;;;9.58;59.59
59289;BME280;45056;47.602;9.886;2023-02-19T03:29:39;93454.94;;;9.58;59.58
59289;BME280;45056;47.602;9.886;2023-02-19T03:32:14;93442.44;;;9.60;59.49
59289;BME280;45056;47.602;9.886;2023-02-19T03:34:54;93444.75;;;9.62;59.40
59289;BME280;45056;47.602;9.886;2023-02-19T03:37:30;93437.34;;;9.62;59.44
59289;BME280;45056;47.602;9.886;2023-02-19T03:40:03;93426.47;;;9.62;59.44
59289;BME280;45056;47.602;9.886;2023-02-19T03:42:38;93425.41;;;9.60;59.39
59289;BME280;45056;47.602;9.886;2023-02-19T03:45:24;93421.56;;;9.57;59.59
59289;BME280;45056;47.602;9.886;2023-02-19T03:48:14;93416.56;;;9.56;59.45
59289;BME280;45056;47.602;9.886;2023-02-19T03:51:01;93413.06;;;9.55;59.58
59289;BME280;45056;47.602;9.886;2023-02-19T03:53:46;93413.50;;;9.53;59.63
59289;BME280;45056;47.602;9.886;2023-02-19T03:56:27;93413.91;;;9.52;59.64
59289;BME280;45056;47.602;9.886;2023-02-19T03:59:08;93436.84;;;9.51;59.56
59289;BME280;45056;47.602;9.886;2023-02-19T04:01:46;93451.59;;;9.50;59.49
59289;BME280;45056;47.602;9.886;2023-02-19T04:04:23;93456.59;;;9.51;59.60
59289;BME280;45056;47.602;9.886;2023-02-19T04:06:57;93474.53;;;9.49;59.39
59289;BME280;45056;47.602;9.886;2023-02-19T04:09:35;93474.94;;;9.47;59.47
59289;BME280;45056;47.602;9.886;2023-02-19T04:12:06;93469.50;;;9.47;59.41
59289;BME280;45056;47.602;9.886;2023-02-19T04:14:39;93473.34;;;9.50;59.10
59289;BME280;45056;47.602;9.886;2023-02-19T04:17:18;93471.13;;;9.45;59.09
59289;BME280;45056;47.602;9.886;2023-02-19T04:19:52;93461.16;;;9.38;59.29
59289;BME280;45056;47.602;9.886;2023-02-19T04:22:25;93451.16;;;9.35;59.28
59289;BME280;45056;47.602;9.886;2023-02-19T04:24:54;93444.59;;;9.32;59.44
59289;BME280;45056;47.602;9.886;2023-02-19T04:27:23;93446.22;;;9.30;59.44
59289;BME280;45056;47.602;9.886;2023-02-19T04:29:51;93455.91;;;9.31;59.38
59289;BME280;45056;47.602;9.886;2023-02-19T04:32:19;93442.31;;;9.31;59.30
59289;BME280;45056;47.602;9.886;2023-02-19T04:34:47;93458.28;;;9.29;59.47
59289;BME280;45056;47.602;9.886;2023-02-19T04:37:15;93480.75;;;9.29;59.64
59289;BME280;45056;47.602;9.886;2023-02-19T04:39:44;93488.91;;;9.29;59.56
59289;BME280;45056;47.602;9.886;2023-02-19T04:42:12;93494.75;;;9.28;59.69
59289;BME280;45056;47.602;9.886;2023-02-19T04:44:40;93478.53;;;9.24;59.79
59289;BME280;45056;47.602;9.886;2023-02-19T04:47:08;93472.00;;;9.21;59.72
59289;BME280;45056;47.602;9.886;2023-02-19T04:49:37;93490.63;;;9.19;59.80
59289;BME280;45056;47.602;9.886;2023-02-19T04:52:04;93500.34;;;9.20;59.88
59289;BME280;45056;47.602;9.886;2023-02-19T04:54:33;93491.41;;;9.20;60.07
59289;BME280;45056;47.602;9.886;2023-02-19T04:57:02;93471.28;;;9.17;60.36
59289;BME280;45056;47.602;9.886;2023-02-19T04:59:30;93494.97;;;9.17;60.73
59289;BME280;45056;47.602;9.886;2023-02-19T05:01:58;93488.00;;;9.16;60.93
59289;BME280;45056;47.602;9.886;2023-02-19T05:04:26;93497.34;;;9.15;61.16
59289;BME280;45056;47.602;9.886;2023-02-19T05:06:54;93493.09;;;9.14;61.33
59289;BME280;45056;47.602;9.886;2023-02-19T05:09:22;93482.63;;;9.12;61.52
59289;BME280;45056;47.602;9.886;2023-02-19T05:11:51;93480.69;;;9.13;61.71
59289;BME280;45056;47.602;9.886;2023-02-19T05:14:20;93504.78;;;9.11;61.69
59289;BME280;45056;47.602;9.886;2023-02-19T05:16:48;93510.63;;;9.09;61.72
59289;BME280;45056;47.602;9.886;2023-02-19T05:19:16;93516.94;;;9.02;61.80
59289;BME280;45056;47.602;9.886;2023-02-19T05:21:44;93525.59;;;8.97;62.24
59289;BME280;45056;47.602;9.886;2023-02-19T05:24:12;93522.53;;;8.95;62.24
59289;BME280;45056;47.602;9.886;2023-02-19T05:26:40;93531.84;;;8.94;62.23
59289;BME280;45056;47.602;9.886;2023-02-19T05:29:08;93524.13;;;8.92;62.36
59289;BME280;45056;47.602;9.886;2023-02-19T05:31:37;93522.25;;;8.89;62.36
59289;BME280;45056;47.602;9.886;2023-02-19T05:34:05;93539.69;;;8.88;62.54
59289;BME280;45056;47.602;9.886;2023-02-19T05:36:33;93523.84;;;8.87;62.70
59289;BME280;45056;47.602;9.886;2023-02-19T05:39:02;93523.50;;;8.85;62.91
59289;BME280;45056;47.602;9.886;2023-02-19T05:41:31;93521.13;;;8.87;62.95
59289;BME280;45056;47.602;9.886;2023-02-19T05:43:59;93524.19;;;8.89;63.12
59289;BME280;45056;47.602;9.886;2023-02-19T05:46:28;93543.97;;;8.89;63.08
59289;BME280;45056;47.602;9.886;2023-02-19T05:48:58;93538.53;;;8.89;62.86
59289;BME280;45056;47.602;9.886;2023-02-19T05:51:26;93543.19;;;8.89;62.88
59289;BME280;45056;47.602;9.886;2023-02-19T05:53:55;93535.38;;;8.91;62.95
59289;BME280;45056;47.602;9.886;2023-02-19T05:56:30;93528.38;;;8.93;62.95
59289;BME280;45056;47.602;9.886;2023-02-19T05:59:02;93530.66;;;8.95;62.77
59289;BME280;45056;47.602;9.886;2023-02-19T06:01:33;93544.66;;;8.93;62.93
59289;BME280;45056;47.602;9.886;2023-02-19T06:04:04;93540.81;;;8.91;62.70
59289;BME280;45056;47.602;9.886;2023-02-19T06:06:32;93535.03;;;8.89;62.76
59289;BME280;45056;47.602;9.886;2023-02-19T06:09:00;93538.94;;;8.88;62.81
59289;BME280;45056;47.602;9.886;2023-02-19T06:11:29;93528.50;;;8.86;63.00
59289;BME280;45056;47.602;9.886;2023-02-19T06:13:57;93542.06;;;8.86;63.20
59289;BME280;45056;47.602;9.886;2023-02-19T06:16:26;93547.91;;;8.85;63.14
59289;BME280;45056;47.602;9.886;2023-02-19T06:18:54;93556.47;;;8.83;63.07
59289;BME280;45056;47.602;9.886;2023-02-19T06:21:23;93565.38;;;8.84;63.22
59289;BME280;45056;47.602;9.886;2023-02-19T06:23:52;93566.97;;;8.81;63.20
59289;BME280;45056;47.602;9.886;2023-02-19T06:26:22;93567.38;;;8.79;63.26
59289;BME280;45056;47.602;9.886;2023-02-19T06:28:52;93566.22;;;8.80;63.08
59289;BME280;45056;47.602;9.886;2023-02-19T06:31:22;93565.78;;;8.82;63.11
59289;BME280;45056;47.602;9.886;2023-02-19T06:33:52;93558.41;;;8.83;62.97
59289;BME280;45056;47.602;9.886;2023-02-19T06:36:23;93570.81;;;8.84;62.72
59289;BME280;45056;47.602;9.886;2023-02-19T06:38:51;93568.84;;;8.84;62.71
59289;BME280;45056;47.602;9.886;2023-02-19T06:41:19;93564.53;;;8.87;62.60
59289;BME280;45056;47.602;9.886;2023-02-19T06:43:47;93574.22;;;8.88;62.38
59289;BME280;45056;47.602;9.886;2023-02-19T06:46:15;93577.69;;;8.88;62.41
59289;BME280;45056;47.602;9.886;2023-02-19T06:48:44;93580.00;;;8.90;62.35
59289;BME280;45056;47.602;9.886;2023-02-19T06:51:14;93583.84;;;8.92;62.41
59289;BME280;45056;47.602;9.886;2023-02-19T06:53:46;93585.78;;;8.92;62.31
59289;BME280;45056;47.602;9.886;2023-02-19T06:56:23;93589.28;;;8.92;62.24
59289;BME280;45056;47.602;9.886;2023-02-19T06:58:52;93586.13;;;8.94;62.14
59289;BME280;45056;47.602;9.886;2023-02-19T07:01:22;93582.22;;;8.95;62.23
59289;BME280;45056;47.602;9.886;2023-02-19T07:03:51;93586.47;;;8.96;62.28
59289;BME280;45056;47.602;9.886;2023-02-19T07:06:22;93593.88;;;8.95;62.82
59289;BME280;45056;47.602;9.886;2023-02-19T07:08:54;93600.03;;;8.96;62.84
59289;BME280;45056;47.602;9.886;2023-02-19T07:11:23;93587.66;;;8.95;63.28
59289;BME280;45056;47.602;9.886;2023-02-19T07:13:56;93599.34;;;8.92;63.92
59289;BME280;45056;47.602;9.886;2023-02-19T07:16:25;93605.59;;;8.89;64.64
59289;BME280;45056;47.602;9.886;2023-02-19T07:18:55;93611.84;;;8.86;65.06
59289;BME280;45056;47.602;9.886;2023-02-19T07:21:25;93610.03;;;8.79;65.54
59289;BME280;45056;47.602;9.886;2023-02-19T07:23:56;93610.50;;;8.74;66.14
59289;BME280;45056;47.602;9.886;2023-02-19T07:26:24;93610.97;;;8.69;66.33
59289;BME280;45056;47.602;9.886;2023-02-19T07:28:52;93616.44;;;8.65;66.68
59289;BME280;45056;47.602;9.886;2023-02-19T07:31:22;93611.50;;;8.60;66.72
59289;BME280;45056;47.602;9.886;2023-02-19T07:33:51;93626.28;;;8.55;66.80
59289;BME280;45056;47.602;9.886;2023-02-19T07:36:20;93618.56;;;8.54;67.09
59289;BME280;45056;47.602;9.886;2023-02-19T07:38:52;93619.75;;;8.52;67.21
59289;BME280;45056;47.602;9.886;2023-02-19T07:41:24;93630.19;;;8.54;67.00
59289;BME280;45056;47.602;9.886;2023-02-19T07:43:53;93634.84;;;8.54;67.18
59289;BME280;45056;47.602;9.886;2023-02-19T07:46:22;93632.13;;;8.54;67.01
59289;BME280;45056;47.602;9.886;2023-02-19T07:48:51;93637.56;;;8.54;67.10
59289;BME280;45056;47.602;9.886;2023-02-19T07:51:19;93637.91;;;8.56;67.11
59289;BME280;45056;47.602;9.886;2023-02-19T07:53:48;93635.56;;;8.58;67.12
59289;BME280;45056;47.602;9.886;2023-02-19T07:56:18;93649.06;;;8.61;66.98
59289;BME280;45056;47.602;9.886;2023-02-19T07:58:48;93643.22;;;8.63;66.85
59289;BME280;45056;47.602;9.886;2023-02-19T08:01:18;93653.25;;;8.66;66.85
59289;BME280;45056;47.602;9.886;2023-02-19T08:04:11;93662.88;;;8.71;66.66
59289;BME280;45056;47.602;9.886;2023-02-19T08:06:41;93657.03;;;8.72;66.73
59289;BME280;45056;47.602;9.886;2023-02-19T08:09:09;93669.41;;;8.73;66.74
59289;BME280;45056;47.602;9.886;2023-02-19T08:11:38;93669.41;;;8.73;66.93
59289;BME280;45056;47.602;9.886;2023-02-19T08:14:25;93665.59;;;8.71;66.97
59289;BME280;45056;47.602;9.886;2023-02-19T08:16:54;93667.88;;;8.72;67.00
59289;BME280;45056;47.602;9.886;2023-02-19T08:19:22;93666.34;;;8.71;66.80
59289;BME280;45056;47.602;9.886;2023-02-19T08:21:50;93679.91;;;8.71;66.98
59289;BME280;45056;47.602;9.886;2023-02-19T08:24:18;93682.22;;;8.73;66.94
59289;BME280;45056;47.602;9.886;2023-02-19T08:26:47;93686.47;;;8.74;66.88
59289;BME280;45056;47.602;9.886;2023-02-19T08:29:15;93684.53;;;8.74;66.79
59289;BME280;45056;47.602;9.886;2023-02-19T08:31:44;93699.63;;;8.75;66.75
59289;BME280;45056;47.602;9.886;2023-02-19T08:34:12;93694.97;;;8.76;66.43
59289;BME280;45056;47.602;9.886;2023-02-19T08:36:40;93696.94;;;8.75;66.66
59289;BME280;45056;47.602;9.886;2023-02-19T08:39:09;93704.63;;;8.77;66.66
59289;BME280;45056;47.602;9.886;2023-02-19T08:41:37;93709.25;;;8.80;66.75
59289;BME280;45056;47.602;9.886;2023-02-19T08:44:05;93707.25;;;8.84;66.68
59289;BME280;45056;47.602;9.886;2023-02-19T08:46:33;93714.16;;;8.89;66.70
59289;BME280;45056;47.602;9.886;2023-02-19T08:49:02;93718.34;;;8.93;66.49
59289;BME280;45056;47.602;9.886;2023-02-19T08:51:30;93723.34;;;8.95;66.54
59289;BME280;45056;47.602;9.886;2023-02-19T08:54:01;93717.94;;;8.95;66.44
59289;BME280;45056;47.602;9.886;2023-02-19T08:56:29;93724.53;;;8.94;66.31
59289;BME280;45056;47.602;9.886;2023-02-19T08:58:57;93722.25;;;8.92;66.22
59289;BME280;45056;47.602;9.886;2023-02-19T09:01:25;93731.94;;;8.93;66.31
59289;BME280;45056;47.602;9.886;2023-02-19T09:03:53;93738.88;;;8.94;66.42
59289;BME280;45056;47.602;9.886;2023-02-19T09:06:22;93735.75;;;8.96;66.13
59289;BME280;45056;47.602;9.886;2023-02-19T09:08:51;93744.25;;;8.98;66.22
59289;BME280;45056;47.602;9.886;2023-02-19T09:11:19;93741.13;;;9.00;66.03
59289;BME280;45056;47.602;9.886;2023-02-19T09:13:48;93734.09;;;9.02;66.32
59289;BME280;45056;47.602;9.886;2023-02-19T09:16:16;93739.44;;;9.09;66.24
59289;BME280;45056;47.602;9.886;2023-02-19T09:18:44;93733.09;;;9.16;66.23
59289;BME280;45056;47.602;9.886;2023-02-19T09:21:12;93732.22;;;9.23;65.86
59289;BME280;45056;47.602;9.886;2023-02-19T09:23:41;93732.59;;;9.25;65.35
59289;BME280;45056;47.602;9.886;2023-02-19T09:26:09;93729.50;;;9.23;65.14
59289;BME280;45056;47.602;9.886;2023-02-19T09:28:39;93728.41;;;9.20;65.29
59289;BME280;45056;47.602;9.886;2023-02-19T09:31:10;93728.34;;;9.24;65.29
59289;BME280;45056;47.602;9.886;2023-02-19T09:33:41;93732.53;;;9.29;65.35
59289;BME280;45056;47.602;9.886;2023-02-19T09:36:11;93718.78;;;9.40;65.32
59289;BME280;45056;47.602;9.886;2023-02-19T09:38:41;93722.75;;;9.55;65.25
59289;BME280;45056;47.602;9.886;2023-02-19T09:41:16;93728.75;;;9.66;64.71
59289;BME280;45056;47.602;9.886;2023-02-19T09:43:49;93719.72;;;9.73;64.11
59289;BME280;45056;47.602;9.886;2023-02-19T09:46:27;93723.22;;;9.74;64.21
59289;BME280;45056;47.602;9.886;2023-02-19T09:49:03;93724.56;;;9.86;63.80
59289;BME280;45056;47.602;9.886;2023-02-19T09:51:37;93721.25;;;9.94;63.67
59289;BME280;45056;47.602;9.886;2023-02-19T09:54:16;93721.91;;;10.02;63.22
59289;BME280;45056;47.602;9.886;2023-02-19T09:56:48;93733.47;;;10.06;63.03
59289;BME280;45056;47.602;9.886;2023-02-19T09:59:20;93730.34;;;10.08;63.13
59289;BME280;45056;47.602;9.886;2023-02-19T10:01:58;93729.91;;;10.09;62.81
59289;BME280;45056;47.602;9.886;2023-02-19T10:04:31;93725.25;;;10.10;62.80
59289;BME280;45056;47.602;9.886;2023-02-19T10:06:59;93731.44;;;10.10;62.60
59289;BME280;45056;47.602;9.886;2023-02-19T10:09:30;93736.97;;;10.07;62.72
59289;BME280;45056;47.602;9.886;2023-02-19T10:11:59;93735.50;;;10.02;62.80
59289;BME280;45056;47.602;9.886;2023-02-19T10:14:34;93730.06;;;10.02;62.70
59289;BME280;45056;47.602;9.886;2023-02-19T10:17:16;93735.50;;;10.02;62.72
59289;BME280;45056;47.602;9.886;2023-02-19T10:19:49;93727.75;;;10.01;62.93
59289;BME280;45056;47.602;9.886;2023-02-19T10:22:18;93732.41;;;10.00;62.81
59289;BME280;45056;47.602;9.886;2023-02-19T10:24:52;93744.13;;;9.97;62.91
59289;BME280;45056;47.602;9.886;2023-02-19T10:27:25;93746.56;;;9.91;63.24
59289;BME280;45056;47.602;9.886;2023-02-19T10:29:54;93751.31;;;9.87;63.33
59289;BME280;45056;47.602;9.886;2023-02-19T10:32:25;93749.78;;;9.86;63.48
59289;BME280;45056;47.602;9.886;2023-02-19T10:35:13;93751.38;;;9.84;63.44
59289;BME280;45056;47.602;9.886;2023-02-19T10:37:45;93756.44;;;9.81;63.44
59289;BME280;45056;47.602;9.886;2023-02-19T10:40:19;93751.44;;;9.80;63.32
59289;BME280;45056;47.602;9.886;2023-02-19T10:42:52;93757.72;;;9.77;63.12
59289;BME280;45056;47.602;9.886;2023-02-19T10:45:27;93755.47;;;9.72;63.17
59289;BME280;45056;47.602;9.886;2023-02-19T10:48:02;93760.13;;;9.71;63.17
59289;BME280;45056;47.602;9.886;2023-02-19T10:50:34;93774.19;;;9.66;63.29
59289;BME280;45056;47.602;9.886;2023-02-19T10:53:20;93764.22;;;9.59;63.45
59289;BME280;45056;47.602;9.886;2023-02-19T10:56:05;93767.00;;;9.56;63.73
59289;BME280;45056;47.602;9.886;2023-02-19T10:58:35;93769.00;;;9.51;64.21
59289;BME280;45056;47.602;9.886;2023-02-19T11:01:17;93766.00;;;9.46;64.62
59289;BME280;45056;47.602;9.886;2023-02-19T11:03:48;93763.28;;;9.46;64.93
59289;BME280;45056;47.602;9.886;2023-02-19T11:06:19;93761.28;;;9.50;64.88
59289;BME280;45056;47.602;9.886;2023-02-19T11:08:55;93767.06;;;9.52;64.79
59289;BME280;45056;47.602;9.886;2023-02-19T11:11:30;93760.03;;;9.55;64.80
59289;BME280;45056;47.602;9.886;2023-02-19T11:14:04;93756.16;;;9.56;64.78
59289;BME280;45056;47.602;9.886;2023-02-19T11:16:45;93746.38;;;9.58;64.78
59289;BME280;45056;47.602;9.886;2023-02-19T11:19:23;93744.31;;;9.66;64.89
59289;BME280;45056;47.602;9.886;2023-02-19T11:21:58;93743.63;;;9.82;64.22
59289;BME280;45056;47.602;9.886;2023-02-19T11:24:32;93747.75;;;9.90;63.97
59289;BME280;45056;47.602;9.886;2023-02-19T11:27:06;93739.88;;;9.96;63.83
59289;BME280;45056;47.602;9.886;2023-02-19T11:29:45;93741.75;;;9.99;63.50
59289;BME280;45056;47.602;9.886;2023-02-19T11:32:27;93736.63;;;10.05;63.37
59289;BME280;45056;47.602;9.886;2023-02-19T11:35:14;93720.00;;;10.19;62.65
59289;BME280;45056;47.602;9.886;2023-02-19T11:37:55;93705.28;;;10.37;61.86
59289;BME280;45056;47.602;9.886;2023-02-19T11:40:39;93709.25;;;10.52;61.19
59289;BME280;45056;47.602;9.886;2023-02-19T11:43:35;93713.88;;;10.72;60.91
59289;BME280;45056;47.602;9.886;2023-02-19T11:46:23;93723.16;;;10.91;59.22
59289;BME280;45056;47.602;9.886;2023-02-19T11:49:19;93712.22;;;10.95;58.44
59289;BME280;45056;47.602;9.886;2023-02-19T11:52:18;93708.28;;;10.96;57.51
59289;BME280;45056;47.602;9.886;2023-02-19T11:55:11;93702.16;;;11.08;58.05
59289;BME280;45056;47.602;9.886;2023-02-19T11:57:47;93690.22;;;11.35;56.47
59289;BME280;45056;47.602;9.886;2023-02-19T12:00:26;93687.84;;;11.67;55.15
59289;BME280;45056;47.602;9.886;2023-02-19T12:03:30;93678.03;;;11.99;54.47
59289;BME280;45056;47.602;9.886;2023-02-19T12:06:22;93685.34;;;12.32;53.29
59289;BME280;45056;47.602;9.886;2023-02-19T12:09:24;93682.97;;;12.60;52.70
59289;BME280;45056;47.602;9.886;2023-02-19T12:15:45;93679.91;;;12.83;52.47
59289;BME280;45056;47.602;9.886;2023-02-19T12:22:05;93686.88;;;13.10;51.89
59289;BME280;45056;47.602;9.886;2023-02-19T12:25:05;93695.91;;;13.20;51.87
59289;BME280;45056;47.602;9.886;2023-02-19T12:28:08;93689.88;;;13.25;51.42
59289;BME280;45056;47.602;9.886;2023-02-19T12:34:22;93700.38;;;13.27;51.57
59289;BME280;45056;47.602;9.886;2023-02-19T12:37:26;93700.03;;;13.38;50.85
59289;BME280;45056;47.602;9.886;2023-02-19T12:40:21;93689.09;;;13.38;51.05
59289;BME280;45056;47.602;9.886;2023-02-19T12:43:09;93687.44;;;13.40;51.41
59289;BME280;45056;47.602;9.886;2023-02-19T12:45:47;93708.56;;;13.53;51.93
59289;BME280;45056;47.602;9.886;2023-02-19T12:48:27;93695.41;;;13.61;50.71
59289;BME280;45056;47.602;9.886;2023-02-19T12:51:05;93704.69;;;13.63;50.05
59289;BME280;45056;47.602;9.886;2023-02-19T12:53:46;93706.72;;;13.50;49.24
59289;BME280;45056;47.602;9.886;2023-02-19T12:56:24;93723.69;;;13.19;50.11
59289;BME280;45056;47.602;9.886;2023-02-19T12:58:59;93719.88;;;12.77;50.45
59289;BME280;45056;47.602;9.886;2023-02-19T13:01:36;93721.25;;;12.43;51.18
59289;BME280;45056;47.602;9.886;2023-02-19T13:04:22;93720.34;;;12.20;51.67
59289;BME280;45056;47.602;9.886;2023-02-19T13:06:56;93720.41;;;12.04;51.56
59289;BME280;45056;47.602;9.886;2023-02-19T13:09:35;93726.66;;;11.88;52.31
59289;BME280;45056;47.602;9.886;2023-02-19T13:12:12;93723.88;;;11.75;52.91
59289;BME280;45056;47.602;9.886;2023-02-19T13:14:48;93726.88;;;11.64;52.78
59289;BME280;45056;47.602;9.886;2023-02-19T13:17:27;93714.38;;;11.50;53.17
59289;BME280;45056;47.602;9.886;2023-02-19T13:20:14;93726.97;;;11.44;53.53
59289;BME280;45056;47.602;9.886;2023-02-19T13:22:59;93717.47;;;11.35;53.87
59289;BME280;45056;47.602;9.886;2023-02-19T13:26:05;93714.06;;;11.31;53.86
59289;BME280;45056;47.602;9.886;2023-02-19T13:28:58;93729.75;;;11.27;54.10
59289;BME280;45056;47.602;9.886;2023-02-19T13:32:00;93717.72;;;11.24;54.06
59289;BME280;45056;47.602;9.886;2023-02-19T13:35:09;93718.56;;;11.21;54.16
59289;BME280;45056;47.602;9.886;2023-02-19T13:37:53;93719.78;;;11.20;54.27
59289;BME280;45056;47.602;9.886;2023-02-19T13:40:28;93716.59;;;11.22;53.98
59289;BME280;45056;47.602;9.886;2023-02-19T13:43:01;93743.94;;;11.18;54.22
59289;BME280;45056;47.602;9.886;2023-02-19T13:45:35;93743.69;;;11.13;54.28
59289;BME280;45056;47.602;9.886;2023-02-19T13:48:23;93739.09;;;11.09;54.56
59289;BME280;45056;47.602;9.886;2023-02-19T13:54:25;93734.47;;;10.90;54.13
59289;BME280;45056;47.602;9.886;2023-02-19T13:57:24;93724.94;;;10.81;53.98
59289;BME280;45056;47.602;9.886;2023-02-19T13:59:56;93723.06;;;10.78;53.63
59289;BME280;45056;47.602;9.886;2023-02-19T14:02:29;93725.78;;;10.78;53.06
59289;BME280;45056;47.602;9.886;2023-02-19T14:05:03;93724.66;;;10.76;53.48
59289;BME280;45056;47.602;9.886;2023-02-19T14:07:52;93716.44;;;10.79;53.44